createdAt,value
2019-02-19T00:02:14.838Z,3.25
2019-02-19T00:04:43.520Z,3.15
2019-02-19T00:07:12.190Z,2.98
2019-02-19T00:09:40.604Z,3.00
2019-02-19T00:12:09.022Z,3.20
2019-02-19T00:14:37.672Z,2.70
2019-02-19T00:17:06.096Z,2.42
2019-02-19T00:19:34.510Z,2.30
2019-02-19T00:22:02.922Z,2.47
2019-02-19T00:24:31.602Z,1.95
2019-02-19T00:27:00.014Z,2.20
2019-02-19T00:29:28.442Z,2.30
2019-02-19T00:31:56.845Z,1.95
2019-02-19T00:34:25.273Z,2.30
2019-02-19T00:36:53.685Z,2.47
2019-02-19T00:39:22.112Z,1.75
2019-02-19T00:41:50.520Z,2.37
2019-02-19T00:44:19.202Z,1.92
2019-02-19T00:46:47.614Z,2.20
2019-02-19T00:49:16.255Z,2.70
2019-02-19T00:51:44.974Z,1.72
2019-02-19T00:54:13.620Z,1.95
2019-02-19T00:56:42.078Z,2.27
2019-02-19T00:59:10.718Z,3.05
2019-02-19T01:01:39.427Z,2.05
2019-02-19T01:04:07.857Z,2.35
2019-02-19T01:06:36.540Z,2.40
2019-02-19T01:09:07.981Z,2.85
2019-02-19T01:11:36.391Z,2.12
2019-02-19T01:14:05.102Z,2.17
2019-02-19T01:16:33.560Z,2.58
2019-02-19T01:19:01.981Z,2.25
2019-02-19T01:21:30.400Z,2.15
2019-02-19T01:23:58.820Z,2.60
2019-02-19T01:26:27.236Z,2.98
2019-02-19T01:28:55.890Z,2.27
2019-02-19T01:31:24.337Z,2.00
2019-02-19T01:33:53.012Z,2.70
2019-02-19T01:36:21.649Z,2.20
2019-02-19T01:38:50.097Z,2.67
2019-02-19T01:41:18.887Z,2.75
2019-02-19T01:43:47.345Z,2.22
2019-02-19T01:46:15.838Z,2.83
2019-02-19T01:48:44.484Z,2.70
2019-02-19T01:51:12.941Z,2.33
2019-02-19T01:53:41.366Z,2.60
2019-02-19T01:56:10.010Z,3.30
2019-02-19T01:58:38.470Z,2.95
2019-02-19T02:01:07.145Z,2.70
2019-02-19T02:03:35.820Z,3.05
2019-02-19T02:06:04.225Z,3.02
2019-02-19T02:08:32.653Z,3.20
2019-02-19T02:11:01.085Z,3.05
2019-02-19T02:13:29.568Z,2.85
2019-02-19T02:15:57.995Z,3.25
2019-02-19T02:18:26.428Z,3.98
2019-02-19T02:20:54.837Z,2.92
2019-02-19T02:23:23.255Z,3.20
2019-02-19T02:25:51.907Z,3.65
2019-02-19T02:28:20.366Z,3.22
2019-02-19T02:30:48.794Z,3.17
2019-02-19T02:33:17.446Z,3.67
2019-02-19T02:35:45.874Z,4.28
2019-02-19T02:38:14.550Z,3.95
2019-02-19T02:40:42.980Z,3.77
2019-02-19T02:43:11.638Z,3.02
2019-02-19T02:45:40.068Z,3.75
2019-02-19T02:48:08.484Z,3.40
2019-02-19T02:50:36.912Z,3.70
2019-02-19T02:53:05.325Z,3.85
2019-02-19T02:55:33.977Z,3.47
2019-02-19T02:58:02.693Z,3.33
2019-02-19T03:00:31.105Z,3.75
2019-02-19T03:02:59.536Z,4.25
2019-02-19T03:05:27.962Z,2.70
2019-02-19T03:07:58.309Z,4.62
2019-02-19T03:10:27.056Z,4.67
2019-02-19T03:12:55.457Z,3.70
2019-02-19T03:15:24.105Z,3.80
2019-02-19T03:17:52.812Z,3.90
2019-02-19T03:20:21.491Z,4.25
2019-02-19T03:22:49.958Z,4.65
2019-02-19T03:25:18.386Z,3.92
2019-02-19T03:27:46.807Z,5.08
2019-02-19T03:30:15.263Z,4.83
2019-02-19T03:32:43.698Z,4.05
2019-02-19T03:35:12.121Z,4.55
2019-02-19T03:37:40.787Z,4.08
2019-02-19T03:40:09.242Z,4.00
2019-02-19T03:42:37.957Z,4.50
2019-02-19T03:45:08.906Z,4.03
2019-02-19T03:47:37.320Z,4.60
2019-02-19T03:50:06.648Z,3.45
2019-02-19T03:52:35.086Z,4.30
2019-02-19T03:55:03.618Z,4.50
2019-02-19T03:57:32.027Z,3.83
2019-02-19T04:00:00.559Z,3.80
2019-02-19T04:02:28.974Z,4.70
2019-02-19T04:04:57.506Z,5.12
2019-02-19T04:07:25.922Z,4.55
2019-02-19T04:09:54.582Z,4.53
2019-02-19T04:12:23.283Z,4.22
2019-02-19T04:14:51.776Z,3.85
2019-02-19T04:17:20.190Z,4.47
2019-02-19T04:19:48.634Z,3.85
2019-02-19T04:22:17.296Z,4.33
2019-02-19T04:24:45.996Z,4.42
2019-02-19T04:27:14.460Z,4.55
2019-02-19T04:29:42.882Z,3.83
2019-02-19T04:32:11.327Z,4.33
2019-02-19T04:34:40.004Z,4.00
2019-02-19T04:37:08.425Z,4.70
2019-02-19T04:39:36.874Z,4.50
2019-02-19T04:42:05.369Z,4.92
2019-02-19T04:44:33.810Z,4.30
2019-02-19T04:47:02.239Z,4.45
2019-02-19T04:49:30.647Z,4.85
2019-02-19T04:51:59.075Z,4.20
2019-02-19T04:54:27.491Z,5.10
2019-02-19T04:56:55.928Z,4.75
2019-02-19T04:59:24.590Z,5.10
2019-02-19T05:01:53.286Z,4.75
2019-02-19T05:04:21.770Z,5.40
2019-02-19T05:06:50.219Z,4.67
2019-02-19T05:09:18.653Z,4.65
2019-02-19T05:11:47.329Z,4.80
2019-02-19T05:14:15.993Z,5.83
2019-02-19T05:16:44.412Z,5.37
2019-02-19T05:19:12.838Z,5.60
2019-02-19T05:21:41.251Z,4.50
2019-02-19T05:24:09.689Z,5.20
2019-02-19T05:26:38.110Z,5.47
2019-02-19T05:29:06.517Z,4.20
2019-02-19T05:31:35.185Z,6.20
2019-02-19T05:34:03.858Z,5.67
2019-02-19T05:36:32.525Z,4.62
2019-02-19T05:39:00.945Z,4.87
2019-02-19T05:41:29.393Z,5.20
2019-02-19T05:43:57.829Z,4.75
2019-02-19T05:46:26.261Z,4.35
2019-02-19T05:48:54.922Z,4.75
2019-02-19T05:51:23.626Z,4.58
2019-02-19T05:53:52.066Z,5.37
2019-02-19T05:56:20.485Z,3.98
2019-02-19T05:58:48.897Z,5.17
2019-02-19T06:01:17.374Z,5.10
2019-02-19T06:03:46.036Z,4.22
2019-02-19T06:06:14.506Z,4.85
2019-02-19T06:08:43.162Z,5.83
2019-02-19T06:11:11.800Z,5.62
2019-02-19T06:13:41.388Z,5.20
2019-02-19T06:16:10.075Z,5.37
2019-02-19T06:18:38.778Z,5.75
2019-02-19T06:21:07.438Z,4.90
2019-02-19T06:23:36.099Z,6.10
2019-02-19T06:26:04.550Z,5.03
2019-02-19T06:28:32.959Z,5.30
2019-02-19T06:31:01.384Z,5.05
2019-02-19T06:33:29.801Z,5.67
2019-02-19T06:35:58.245Z,4.65
2019-02-19T06:38:26.657Z,5.53
2019-02-19T06:40:55.077Z,5.53
2019-02-19T06:43:23.490Z,5.25
2019-02-19T06:45:52.162Z,4.72
2019-02-19T06:48:20.846Z,4.83
2019-02-19T06:50:49.524Z,5.60
2019-02-19T06:53:17.971Z,5.30
2019-02-19T06:55:46.385Z,5.50
2019-02-19T06:58:14.809Z,5.53
2019-02-19T07:00:43.231Z,5.25
2019-02-19T07:03:19.305Z,6.45
2019-02-19T07:05:47.725Z,5.35
2019-02-19T07:08:16.160Z,5.10
2019-02-19T07:10:45.638Z,5.20
2019-02-19T07:13:14.069Z,6.35
2019-02-19T07:15:42.738Z,5.78
2019-02-19T07:18:11.170Z,7.30
2019-02-19T07:20:39.621Z,6.00
2019-02-19T07:23:08.270Z,5.65
2019-02-19T07:25:36.724Z,6.00
2019-02-19T07:28:05.533Z,6.65
2019-02-19T07:30:34.195Z,5.15
2019-02-19T07:33:02.658Z,5.00
2019-02-19T07:35:31.082Z,4.87
2019-02-19T07:37:59.514Z,5.80
2019-02-19T07:40:27.933Z,6.10
2019-02-19T07:42:56.365Z,5.78
2019-02-19T07:45:25.017Z,6.10
2019-02-19T07:47:53.508Z,4.20
2019-02-19T07:50:21.934Z,5.03
2019-02-19T07:52:50.362Z,5.90
2019-02-19T07:55:19.035Z,5.40
2019-02-19T07:57:47.701Z,4.43
2019-02-19T08:00:16.188Z,5.03
2019-02-19T08:02:44.652Z,5.47
2019-02-19T08:05:13.334Z,4.67
2019-02-19T08:07:41.781Z,5.53
2019-02-19T08:10:11.539Z,5.07
2019-02-19T08:12:39.966Z,5.40
2019-02-19T08:15:12.400Z,4.20
2019-02-19T08:17:41.039Z,3.90
2019-02-19T08:20:15.814Z,4.20
2019-02-19T08:22:40.101Z,5.27
2019-02-19T08:25:08.816Z,4.57
2019-02-19T08:27:37.277Z,3.67
2019-02-19T08:30:08.337Z,3.40
2019-02-19T08:32:51.209Z,3.60
2019-02-19T08:35:19.635Z,4.20
2019-02-19T08:37:48.327Z,4.27
2019-02-19T08:40:16.735Z,3.73
2019-02-19T08:42:45.383Z,4.70
2019-02-19T08:45:14.097Z,3.67
2019-02-19T08:47:43.108Z,4.70
2019-02-19T08:50:11.803Z,4.00
2019-02-19T08:52:40.234Z,3.77
2019-02-19T08:55:08.654Z,4.27
2019-02-19T08:57:37.086Z,3.53
2019-02-19T09:00:10.825Z,3.03
2019-02-19T09:02:39.256Z,3.00
2019-02-19T09:05:08.390Z,3.87
2019-02-19T09:07:37.047Z,3.53
2019-02-19T09:10:08.603Z,3.80
2019-02-19T09:12:37.035Z,3.07
2019-02-19T09:15:08.834Z,3.40
2019-02-19T09:17:37.247Z,3.47
2019-02-19T09:20:08.038Z,3.27
2019-02-19T09:22:36.447Z,3.57
2019-02-19T09:25:07.310Z,3.00
2019-02-19T09:27:35.728Z,3.57
2019-02-19T09:30:06.187Z,3.23
2019-02-19T09:32:34.610Z,3.33
2019-02-19T09:35:03.642Z,3.33
2019-02-19T09:37:32.050Z,2.87
2019-02-19T09:40:00.898Z,3.53
2019-02-19T09:42:29.068Z,3.33
2019-02-19T09:44:57.511Z,3.47
2019-02-19T09:47:25.915Z,3.27
2019-02-19T09:49:54.347Z,5.40
2019-02-19T09:52:22.771Z,3.67
2019-02-19T09:54:51.196Z,3.43
2019-02-19T09:57:19.860Z,3.60
2019-02-19T09:59:48.317Z,3.30
2019-02-19T10:02:16.727Z,4.10
2019-02-19T10:04:45.175Z,3.30
2019-02-19T10:07:13.843Z,2.93
2019-02-19T10:09:42.267Z,3.30
2019-02-19T10:12:10.679Z,3.13
2019-02-19T10:14:39.138Z,2.80
2019-02-19T10:17:07.652Z,3.13
2019-02-19T10:19:36.078Z,3.17
2019-02-19T10:22:04.545Z,2.77
2019-02-19T10:24:33.048Z,3.30
2019-02-19T10:27:01.695Z,3.40
2019-02-19T10:29:30.159Z,2.90
2019-02-19T10:31:58.857Z,3.33
2019-02-19T10:34:27.298Z,2.30
2019-02-19T10:36:55.723Z,3.17
2019-02-19T10:39:24.181Z,3.20
2019-02-19T10:41:53.038Z,3.53
2019-02-19T10:44:21.738Z,2.53
2019-02-19T10:46:50.164Z,3.17
2019-02-19T10:49:18.599Z,2.63
2019-02-19T10:51:47.026Z,2.90
2019-02-19T10:54:15.720Z,3.77
2019-02-19T10:56:45.247Z,2.60
2019-02-19T10:59:13.959Z,2.90
2019-02-19T11:01:42.472Z,3.13
2019-02-19T11:04:10.896Z,3.00
2019-02-19T11:06:39.343Z,2.87
2019-02-19T11:09:08.015Z,2.67
2019-02-19T11:11:36.757Z,1.90
2019-02-19T11:14:05.239Z,2.07
2019-02-19T11:16:33.697Z,2.97
2019-02-19T11:19:02.105Z,2.53
2019-02-19T11:21:30.547Z,2.27
2019-02-19T11:23:59.225Z,2.13
2019-02-19T11:26:27.899Z,3.27
2019-02-19T11:28:56.338Z,2.40
2019-02-19T11:31:24.769Z,2.70
2019-02-19T11:33:53.199Z,2.33
2019-02-19T11:36:21.690Z,2.80
2019-02-19T11:38:50.262Z,3.30
2019-02-19T11:41:18.963Z,2.53
2019-02-19T11:43:47.390Z,3.07
2019-02-19T11:46:16.155Z,3.17
2019-02-19T11:48:44.863Z,3.20
2019-02-19T11:51:13.522Z,3.13
2019-02-19T11:53:41.967Z,2.27
2019-02-19T11:56:10.376Z,2.13
2019-02-19T11:58:38.807Z,2.20
2019-02-19T12:01:07.410Z,2.40
2019-02-19T12:03:36.276Z,3.00
2019-02-19T12:06:04.711Z,2.13
2019-02-19T12:08:38.770Z,2.67
2019-02-19T12:11:03.703Z,2.37
2019-02-19T12:13:32.574Z,3.07
2019-02-19T12:16:01.477Z,2.80
2019-02-19T12:18:30.150Z,2.83
2019-02-19T12:20:58.559Z,3.40
2019-02-19T12:23:27.069Z,4.23
2019-02-19T12:25:55.496Z,2.70
2019-02-19T12:28:23.949Z,2.70
2019-02-19T12:30:52.389Z,2.70
2019-02-19T12:33:20.881Z,2.90
2019-02-19T12:35:49.310Z,3.30
2019-02-19T12:38:17.738Z,2.57
2019-02-19T12:40:46.155Z,3.00
2019-02-19T12:43:14.842Z,2.40
2019-02-19T12:45:43.332Z,2.40
2019-02-19T12:48:12.120Z,2.77
2019-02-19T12:50:40.530Z,2.70
2019-02-19T12:53:09.215Z,2.20
2019-02-19T12:55:37.623Z,2.20
2019-02-19T12:58:06.060Z,2.23
2019-02-19T13:00:34.624Z,2.80
2019-02-19T13:03:03.050Z,2.30
2019-02-19T13:05:31.486Z,2.13
2019-02-19T13:07:59.950Z,2.20
2019-02-19T13:10:28.417Z,1.97
2019-02-19T13:12:57.120Z,2.47
2019-02-19T13:15:25.532Z,2.00
2019-02-19T13:17:53.947Z,2.30
2019-02-19T13:20:22.385Z,1.93
2019-02-19T13:22:50.815Z,1.87
2019-02-19T13:25:19.239Z,2.30
2019-02-19T13:27:47.646Z,2.07
2019-02-19T13:30:18.612Z,2.30
2019-02-19T13:32:47.064Z,2.00
2019-02-19T13:35:15.777Z,2.50
2019-02-19T13:37:44.230Z,2.50
2019-02-19T13:40:14.783Z,2.00
2019-02-19T13:42:43.456Z,2.13
2019-02-19T13:45:15.829Z,2.40
2019-02-19T13:47:44.479Z,1.60
2019-02-19T13:50:16.080Z,2.07
2019-02-19T13:52:46.439Z,2.10
2019-02-19T13:55:16.600Z,2.13
2019-02-19T13:57:45.025Z,2.77
2019-02-19T14:00:15.203Z,2.77
2019-02-19T14:02:43.650Z,2.00
2019-02-19T14:05:12.071Z,2.00
2019-02-19T14:07:40.513Z,2.30
2019-02-19T14:10:11.079Z,2.20
2019-02-19T14:12:39.729Z,2.43
2019-02-19T14:15:30.111Z,2.20
2019-02-19T14:17:59.309Z,3.33
2019-02-19T14:20:29.470Z,2.03
2019-02-19T14:23:16.088Z,2.00
2019-02-19T14:25:46.155Z,2.40
2019-02-19T14:28:19.339Z,2.70
2019-02-19T14:30:55.382Z,2.40
2019-02-19T14:33:28.107Z,2.10
2019-02-19T14:36:01.307Z,2.10
2019-02-19T14:38:49.346Z,2.73
2019-02-19T14:41:28.467Z,2.17
2019-02-19T14:43:58.694Z,1.93
2019-02-19T14:46:37.932Z,3.00
2019-02-19T14:49:16.503Z,3.10
2019-02-19T14:52:02.626Z,2.10
2019-02-19T14:54:32.687Z,2.20
2019-02-19T14:57:21.150Z,2.60
2019-02-19T15:00:07.459Z,2.87
2019-02-19T15:02:53.539Z,4.40
2019-02-19T15:05:40.058Z,2.50
2019-02-19T15:08:10.107Z,2.57
2019-02-19T15:10:48.910Z,2.47
2019-02-19T15:13:21.643Z,2.20
2019-02-19T15:15:51.704Z,2.60
2019-02-19T15:18:24.622Z,2.77
2019-02-19T15:21:12.867Z,2.93
2019-02-19T15:23:43.279Z,2.13
2019-02-19T15:26:19.246Z,4.63
2019-02-19T15:28:58.150Z,2.70
2019-02-19T15:31:28.250Z,2.27
2019-02-19T15:34:07.089Z,2.40
2019-02-19T15:36:46.014Z,4.40
2019-02-19T15:39:16.067Z,2.33
2019-02-19T15:41:54.942Z,2.30
2019-02-19T15:44:27.695Z,2.90
2019-02-19T15:46:57.774Z,2.70
2019-02-19T15:49:47.647Z,3.37
2019-02-19T15:52:14.155Z,2.33
2019-02-19T15:54:49.716Z,2.40
2019-02-19T15:57:19.780Z,2.70
2019-02-19T16:00:01.449Z,3.00
2019-02-19T16:02:34.194Z,2.20
2019-02-19T16:05:04.281Z,2.73
2019-02-19T16:07:34.651Z,1.70
2019-02-19T16:10:10.469Z,3.20
2019-02-19T16:12:43.231Z,2.60
2019-02-19T16:15:29.026Z,2.33
2019-02-19T16:17:59.162Z,2.90
2019-02-19T16:20:37.939Z,3.60
2019-02-19T16:23:24.265Z,2.27
2019-02-19T16:26:10.931Z,2.63
2019-02-19T16:28:43.966Z,3.17
2019-02-19T16:31:19.707Z,3.77
2019-02-19T16:33:59.058Z,4.70
2019-02-19T16:36:29.162Z,3.37
2019-02-19T16:39:02.434Z,2.90
2019-02-19T16:41:38.525Z,2.60
2019-02-19T16:44:11.132Z,3.37
2019-02-19T16:46:57.357Z,2.83
2019-02-19T16:49:30.371Z,2.57
2019-02-19T16:52:11.978Z,3.20
2019-02-19T16:54:57.164Z,2.37
2019-02-19T16:57:30.328Z,2.67
2019-02-19T17:00:08.967Z,2.80
2019-02-19T17:02:50.889Z,2.87
2019-02-19T17:05:29.774Z,3.17
2019-02-19T17:07:59.917Z,2.60
2019-02-19T17:10:48.467Z,2.43
2019-02-19T17:13:24.558Z,2.80
2019-02-19T17:16:03.596Z,2.90
2019-02-19T17:18:42.616Z,2.93
2019-02-19T17:21:28.659Z,3.00
2019-02-19T17:23:58.975Z,2.87
2019-02-19T17:26:34.530Z,2.93
2019-02-19T17:29:10.330Z,2.90
2019-02-19T17:31:42.846Z,4.30
2019-02-19T17:34:12.926Z,3.17
2019-02-19T17:36:51.986Z,3.20
2019-02-19T17:39:22.071Z,3.30
2019-02-19T17:42:01.131Z,2.77
2019-02-19T17:44:31.275Z,3.30
2019-02-19T17:47:17.881Z,3.87
2019-02-19T17:49:50.692Z,3.50
2019-02-19T17:52:26.266Z,4.03
2019-02-19T17:55:12.374Z,3.83
2019-02-19T17:57:48.478Z,4.43
2019-02-19T18:00:18.544Z,3.90
2019-02-19T18:03:03.706Z,4.57
2019-02-19T18:05:33.817Z,4.77
2019-02-19T18:08:09.609Z,3.87
2019-02-19T18:10:42.370Z,4.60
2019-02-19T18:13:12.435Z,4.17
2019-02-19T18:15:45.677Z,5.00
2019-02-19T18:18:30.750Z,4.20
2019-02-19T18:20:59.466Z,4.37
2019-02-19T18:23:28.144Z,4.50
2019-02-19T18:25:56.659Z,4.30
2019-02-19T18:28:25.404Z,5.37
2019-02-19T18:30:54.116Z,4.00
2019-02-19T18:33:22.664Z,6.93
2019-02-19T18:35:51.227Z,4.93
2019-02-19T18:38:19.807Z,4.37
2019-02-19T18:40:48.327Z,4.97
2019-02-19T18:43:16.754Z,4.70
2019-02-19T18:45:45.442Z,4.20
2019-02-19T18:48:13.917Z,4.93
2019-02-19T18:50:42.346Z,4.63
2019-02-19T18:53:10.988Z,3.77
2019-02-19T18:55:39.450Z,4.87
2019-02-19T18:58:07.943Z,4.00
2019-02-19T19:00:36.423Z,4.60
2019-02-19T19:03:05.194Z,4.70
2019-02-19T19:05:33.607Z,3.93
2019-02-19T19:08:02.045Z,4.53
2019-02-19T19:10:30.476Z,4.40
2019-02-19T19:12:59.175Z,5.50
2019-02-19T19:15:27.808Z,4.30
2019-02-19T19:17:56.283Z,5.23
2019-02-19T19:20:25.077Z,5.00
2019-02-19T19:22:53.562Z,6.10
2019-02-19T19:25:22.275Z,5.10
2019-02-19T19:27:50.743Z,5.80
2019-02-19T19:30:19.447Z,5.50
2019-02-19T19:32:47.994Z,5.90
2019-02-19T19:35:16.415Z,5.93
2019-02-19T19:37:44.841Z,6.17
2019-02-19T19:40:13.282Z,5.90
2019-02-19T19:42:41.998Z,5.47
2019-02-19T19:45:11.760Z,7.07
2019-02-19T19:47:40.203Z,6.03
2019-02-19T19:50:10.269Z,6.23
2019-02-19T19:52:38.702Z,6.97
2019-02-19T19:55:09.164Z,6.60
2019-02-19T19:57:37.622Z,6.33
2019-02-19T20:00:08.801Z,7.10
2019-02-19T20:02:37.229Z,6.13
2019-02-19T20:05:08.178Z,7.13
2019-02-19T20:07:36.615Z,6.60
2019-02-19T20:10:11.007Z,7.67
2019-02-19T20:12:39.705Z,8.10
2019-02-19T20:15:10.768Z,8.40
2019-02-19T20:17:39.207Z,7.97
2019-02-19T20:20:12.419Z,8.50
2019-02-19T20:22:41.058Z,9.20
2019-02-19T20:25:14.109Z,9.00
2019-02-19T20:27:42.574Z,9.00
2019-02-19T20:30:16.063Z,9.30
2019-02-19T20:32:44.760Z,10.10
2019-02-19T20:35:13.224Z,9.60
2019-02-19T20:37:41.699Z,10.47
2019-02-19T20:40:11.379Z,8.73
2019-02-19T20:42:40.148Z,9.17
2019-02-19T20:45:12.919Z,10.60
2019-02-19T20:47:41.407Z,9.97
2019-02-19T20:50:11.336Z,9.60
2019-02-19T20:52:39.758Z,10.97
2019-02-19T20:55:10.935Z,10.67
2019-02-19T20:57:39.426Z,10.57
2019-02-19T21:00:16.530Z,11.30
2019-02-19T21:02:45.137Z,10.20
2019-02-19T21:05:14.174Z,11.40
2019-02-19T21:07:42.604Z,10.80
2019-02-19T21:10:19.187Z,11.67
2019-02-19T21:12:47.604Z,13.10
2019-02-19T21:15:16.474Z,12.80
2019-02-19T21:17:45.132Z,13.13
2019-02-19T21:20:13.634Z,10.90
2019-02-19T21:22:42.062Z,11.10
2019-02-19T21:25:11.450Z,11.50
2019-02-19T21:27:39.912Z,11.57
2019-02-19T21:30:16.017Z,9.90
2019-02-19T21:32:44.482Z,10.13
2019-02-19T21:35:13.020Z,10.90
2019-02-19T21:37:41.453Z,10.70
2019-02-19T21:40:15.473Z,11.33
2019-02-19T21:42:44.147Z,9.40
2019-02-19T21:45:14.625Z,9.83
2019-02-19T21:47:43.297Z,9.60
2019-02-19T21:50:12.765Z,10.10
2019-02-19T21:52:41.193Z,9.33
2019-02-19T21:55:11.113Z,9.50
2019-02-19T21:57:39.782Z,9.83
2019-02-19T22:00:15.430Z,8.53
2019-02-19T22:02:44.106Z,9.37
2019-02-19T22:05:12.565Z,9.10
2019-02-19T22:07:40.993Z,8.37
2019-02-19T22:10:12.091Z,9.30
2019-02-19T22:12:40.634Z,8.30
2019-02-19T22:15:13.362Z,8.27
2019-02-19T22:17:41.853Z,8.90
2019-02-19T22:20:33.476Z,8.77
2019-02-19T22:23:01.968Z,7.90
2019-02-19T22:25:30.439Z,8.60
2019-02-19T22:27:58.920Z,8.47
2019-02-19T22:30:27.790Z,8.73
2019-02-19T22:32:56.233Z,8.07
2019-02-19T22:35:24.902Z,8.33
2019-02-19T22:37:53.353Z,8.67
2019-02-19T22:40:21.996Z,9.40
2019-02-19T22:42:50.449Z,9.30
2019-02-19T22:45:19.118Z,9.53
2019-02-19T22:47:53.248Z,9.50
2019-02-19T22:50:17.685Z,9.17
2019-02-19T22:52:46.612Z,10.23
2019-02-19T22:55:16.708Z,9.40
2019-02-19T22:57:45.141Z,8.97
2019-02-19T23:00:39.066Z,8.17
2019-02-19T23:03:07.896Z,8.10
2019-02-19T23:05:36.567Z,6.80
2019-02-19T23:08:05.278Z,6.60
2019-02-19T23:10:33.950Z,7.27
2019-02-19T23:13:02.406Z,6.70
2019-02-19T23:15:31.081Z,7.13
2019-02-19T23:17:59.719Z,6.83
2019-02-19T23:20:28.172Z,6.60
2019-02-19T23:22:56.811Z,7.93
2019-02-19T23:25:25.290Z,7.10
2019-02-19T23:27:53.934Z,7.67
2019-02-19T23:30:22.410Z,7.37
2019-02-19T23:32:50.859Z,7.90
2019-02-19T23:35:21.206Z,8.10
2019-02-19T23:37:49.651Z,8.70
2019-02-19T23:40:18.069Z,9.37
2019-02-19T23:42:46.503Z,8.83
2019-02-19T23:45:15.166Z,8.80
2019-02-19T23:47:43.621Z,8.33
2019-02-19T23:50:12.043Z,9.70
2019-02-19T23:52:40.731Z,9.17
2019-02-19T23:55:09.280Z,9.57
2019-02-19T23:57:37.730Z,9.37
